createdAt,value
2022-09-12T00:00:11.985Z,99683.75
2022-09-12T00:02:38.546Z,99687.22
2022-09-12T00:05:07.539Z,99679.41
2022-09-12T00:07:34.329Z,99682.84
2022-09-12T00:10:01.035Z,99681.94
2022-09-12T00:12:28.044Z,99682.94
2022-09-12T00:14:54.750Z,99676.28
2022-09-12T00:17:21.574Z,99678.75
2022-09-12T00:19:48.550Z,99676.72
2022-09-12T00:22:15.267Z,99680.94
2022-09-12T00:24:41.923Z,99679.81
2022-09-12T00:27:08.886Z,99690.03
2022-09-12T00:29:35.603Z,99689.13
2022-09-12T00:32:02.423Z,99682.25
2022-09-12T00:34:29.398Z,99692.00
2022-09-12T00:36:56.194Z,99689.00
2022-09-12T00:39:22.868Z,99686.72
2022-09-12T00:41:50.080Z,99684.41
2022-09-12T00:44:16.769Z,99689.84
2022-09-12T00:46:43.425Z,99692.47
2022-09-12T00:49:11.353Z,99691.88
2022-09-12T00:51:38.090Z,99693.09
2022-09-12T00:54:06.735Z,99694.91
2022-09-12T00:56:33.707Z,99691.41
2022-09-12T00:59:05.725Z,99685.78
2022-09-12T01:01:32.958Z,99687.97
2022-09-12T01:04:00.410Z,99695.16
2022-09-12T01:06:28.211Z,99695.66
2022-09-12T01:08:55.210Z,99696.31
2022-09-12T01:11:22.248Z,99697.19
2022-09-12T01:13:48.957Z,99700.84
2022-09-12T01:16:15.752Z,99687.22
2022-09-12T01:18:49.103Z,99687.19
2022-09-12T01:21:18.436Z,99687.06
2022-09-12T01:23:51.510Z,99686.97
2022-09-12T01:26:36.719Z,99685.31
2022-09-12T01:29:09.800Z,99689.75
2022-09-12T01:31:41.625Z,99690.59
2022-09-12T01:34:27.029Z,99690.56
2022-09-12T01:37:05.811Z,99692.66
2022-09-12T01:39:39.095Z,99684.22
2022-09-12T01:42:18.153Z,99683.41
2022-09-12T01:44:50.824Z,99682.31
2022-09-12T01:47:19.988Z,99686.00
2022-09-12T01:49:50.036Z,99684.78
2022-09-12T01:52:16.724Z,99681.63
2022-09-12T01:54:45.469Z,99691.03
2022-09-12T01:57:18.430Z,99690.09
2022-09-12T01:59:46.024Z,99686.00
2022-09-12T02:02:15.293Z,99691.47
2022-09-12T02:05:02.651Z,99693.19
2022-09-12T02:07:48.862Z,99693.66
2022-09-12T02:10:20.372Z,99698.13
2022-09-12T02:12:51.948Z,99700.06
2022-09-12T02:15:19.207Z,99700.72
2022-09-12T02:17:47.011Z,99698.44
2022-09-12T02:20:37.461Z,99707.44
2022-09-12T02:23:09.906Z,99705.59
2022-09-12T02:25:38.087Z,99700.53
2022-09-12T02:28:07.126Z,99698.59
2022-09-12T02:30:39.677Z,99702.13
2022-09-12T02:33:07.207Z,99695.59
2022-09-12T02:36:00.481Z,99695.16
2022-09-12T02:38:44.584Z,99691.97
2022-09-12T02:41:12.481Z,99684.44
2022-09-12T02:43:39.239Z,99693.84
2022-09-12T02:46:06.807Z,99708.97
2022-09-12T02:48:34.649Z,99697.97
2022-09-12T02:51:01.857Z,99701.63
2022-09-12T02:53:28.915Z,99703.22
2022-09-12T02:55:56.188Z,99703.22
2022-09-12T02:58:23.687Z,99705.91
2022-09-12T03:00:52.150Z,99705.91
2022-09-12T03:03:22.045Z,99702.19
2022-09-12T03:05:54.501Z,99705.78
2022-09-12T03:08:29.239Z,99706.94
2022-09-12T03:11:03.359Z,99710.47
2022-09-12T03:13:36.591Z,99703.22
2022-09-12T03:16:15.131Z,99702.13
2022-09-12T03:19:02.918Z,99701.69
2022-09-12T03:21:35.755Z,99699.88
2022-09-12T03:24:13.390Z,99691.66
2022-09-12T03:26:40.059Z,99694.91
2022-09-12T03:29:07.131Z,99693.88
2022-09-12T03:31:34.124Z,99695.44
2022-09-12T03:34:00.924Z,99699.78
2022-09-12T03:36:28.635Z,99695.56
2022-09-12T03:38:55.326Z,99701.91
2022-09-12T03:41:22.145Z,99707.03
2022-09-12T03:43:49.156Z,99709.44
2022-09-12T03:46:15.826Z,99711.19
2022-09-12T03:48:42.619Z,99712.72
2022-09-12T03:51:10.771Z,99696.72
2022-09-12T03:53:37.489Z,99698.88
2022-09-12T03:56:08.178Z,99705.34
2022-09-12T03:58:36.317Z,99695.75
2022-09-12T04:01:13.432Z,99709.81
2022-09-12T04:03:44.165Z,99705.97
2022-09-12T04:06:11.769Z,99705.66
2022-09-12T04:08:38.580Z,99709.19
2022-09-12T04:11:06.361Z,99710.34
2022-09-12T04:13:33.090Z,99716.41
2022-09-12T04:15:59.884Z,99718.75
2022-09-12T04:18:27.428Z,99724.22
2022-09-12T04:20:54.255Z,99721.47
2022-09-12T04:23:20.932Z,99725.53
2022-09-12T04:25:57.657Z,99718.41
2022-09-12T04:28:25.930Z,99709.31
2022-09-12T04:30:52.927Z,99716.12
2022-09-12T04:33:19.688Z,99715.31
2022-09-12T04:35:46.500Z,99718.00
2022-09-12T04:38:13.571Z,99717.97
2022-09-12T04:40:40.544Z,99718.06
2022-09-12T04:43:10.139Z,99718.69
2022-09-12T04:45:39.629Z,99722.81
2022-09-12T04:48:06.366Z,99723.03
2022-09-12T04:50:33.116Z,99719.72
2022-09-12T04:53:00.216Z,99728.34
2022-09-12T04:55:27.091Z,99737.19
2022-09-12T04:57:53.793Z,99738.00
2022-09-12T05:00:20.812Z,99737.00
2022-09-12T05:02:47.600Z,99738.81
2022-09-12T05:05:14.272Z,99743.69
2022-09-12T05:07:41.271Z,99743.69
2022-09-12T05:10:08.338Z,99736.41
2022-09-12T05:12:35.883Z,99747.19
2022-09-12T05:15:04.742Z,99755.94
2022-09-12T05:17:31.529Z,99751.50
2022-09-12T05:19:58.334Z,99753.38
2022-09-12T05:22:25.292Z,99760.28
2022-09-12T05:24:52.048Z,99759.31
2022-09-12T05:27:18.857Z,99766.22
2022-09-12T05:29:46.011Z,99767.88
2022-09-12T05:32:12.761Z,99778.38
2022-09-12T05:34:40.243Z,99782.16
2022-09-12T05:37:07.298Z,99774.50
2022-09-12T05:39:33.953Z,99772.87
2022-09-12T05:42:00.650Z,99769.12
2022-09-12T05:44:28.245Z,99769.34
2022-09-12T05:46:55.103Z,99775.84
2022-09-12T05:49:21.851Z,99781.66
2022-09-12T05:51:49.029Z,99785.31
2022-09-12T05:54:18.134Z,99788.72
2022-09-12T05:56:45.056Z,99777.50
2022-09-12T05:59:13.412Z,99785.84
2022-09-12T06:01:40.345Z,99782.41
2022-09-12T06:04:07.531Z,99785.59
2022-09-12T06:06:38.822Z,99797.41
2022-09-12T06:09:05.914Z,99789.94
2022-09-12T06:11:33.566Z,99796.44
2022-09-12T06:14:00.756Z,99788.28
2022-09-12T06:16:28.394Z,99784.75
2022-09-12T06:18:56.241Z,99791.66
2022-09-12T06:21:23.260Z,99790.66
2022-09-12T06:23:50.695Z,99791.09
2022-09-12T06:26:21.472Z,99791.34
2022-09-12T06:28:48.285Z,99789.88
2022-09-12T06:31:16.065Z,99780.31
2022-09-12T06:33:44.084Z,99781.53
2022-09-12T06:36:12.509Z,99798.03
2022-09-12T06:38:39.698Z,99789.19
2022-09-12T06:41:07.568Z,99786.91
2022-09-12T06:43:34.673Z,99791.34
2022-09-12T06:46:02.005Z,99789.69
2022-09-12T06:48:29.773Z,99787.66
2022-09-12T06:51:01.498Z,99785.69
2022-09-12T06:53:28.799Z,99786.09
2022-09-12T06:56:06.977Z,99786.66
2022-09-12T06:58:34.131Z,99778.88
2022-09-12T07:01:04.234Z,99775.69
2022-09-12T07:03:31.028Z,99779.28
2022-09-12T07:05:57.975Z,99785.59
2022-09-12T07:08:25.021Z,99776.81
2022-09-12T07:10:51.747Z,99776.75
2022-09-12T07:13:18.409Z,99782.53
2022-09-12T07:15:45.369Z,99786.25
2022-09-12T07:18:12.032Z,99782.97
2022-09-12T07:20:39.803Z,99789.34
2022-09-12T07:23:06.802Z,99788.81
2022-09-12T07:25:33.534Z,99792.25
2022-09-12T07:28:00.292Z,99791.38
2022-09-12T07:30:27.495Z,99787.72
2022-09-12T07:32:54.367Z,99794.87
2022-09-12T07:35:21.683Z,99794.28
2022-09-12T07:37:48.710Z,99794.25
2022-09-12T07:40:15.594Z,99793.47
2022-09-12T07:42:42.297Z,99796.19
2022-09-12T07:45:09.521Z,99787.91
2022-09-12T07:47:36.414Z,99793.41
2022-09-12T07:50:03.106Z,99800.50
2022-09-12T07:52:30.489Z,99793.69
2022-09-12T07:54:57.212Z,99804.94
2022-09-12T07:57:24.099Z,99791.53
2022-09-12T07:59:53.243Z,99794.41
2022-09-12T08:02:20.394Z,99796.00
2022-09-12T08:04:48.279Z,99797.03
2022-09-12T08:07:15.171Z,99790.78
2022-09-12T08:09:41.811Z,99792.66
2022-09-12T08:12:08.769Z,99792.47
2022-09-12T08:14:35.487Z,99795.41
2022-09-12T08:17:02.253Z,99796.69
2022-09-12T08:19:29.214Z,99798.69
2022-09-12T08:21:55.924Z,99785.56
2022-09-12T08:24:22.642Z,99793.84
2022-09-12T08:26:49.667Z,99788.75
2022-09-12T08:29:16.533Z,99791.94
2022-09-12T08:31:43.319Z,99794.44
2022-09-12T08:34:10.345Z,99793.53
2022-09-12T08:36:37.120Z,99790.22
2022-09-12T08:39:05.445Z,99796.03
2022-09-12T08:41:35.128Z,99792.78
2022-09-12T08:44:20.771Z,99800.69
2022-09-12T08:47:06.439Z,99792.31
2022-09-12T08:49:45.370Z,99790.47
2022-09-12T08:52:13.356Z,99789.09
2022-09-12T08:54:40.009Z,99787.97
2022-09-12T08:57:09.060Z,99776.72
2022-09-12T08:59:38.075Z,99779.06
2022-09-12T09:02:05.634Z,99780.66
2022-09-12T09:04:32.274Z,99778.81
2022-09-12T09:07:06.620Z,99776.91
2022-09-12T09:09:42.930Z,99781.44
2022-09-12T09:12:28.870Z,99768.06
2022-09-12T09:15:21.439Z,99770.34
2022-09-12T09:17:50.033Z,99768.53
2022-09-12T09:20:26.359Z,99774.38
2022-09-12T09:22:55.236Z,99767.97
2022-09-12T09:25:23.245Z,99769.34
2022-09-12T09:28:01.019Z,99767.91
2022-09-12T09:30:28.800Z,99766.50
2022-09-12T09:32:56.296Z,99766.91
2022-09-12T09:35:34.325Z,99771.00
2022-09-12T09:38:22.591Z,99759.00
2022-09-12T09:40:59.417Z,99772.78
2022-09-12T09:43:29.295Z,99769.62
2022-09-12T09:45:56.948Z,99773.13
2022-09-12T09:48:23.643Z,99779.81
2022-09-12T09:50:50.694Z,99782.38
2022-09-12T09:53:30.474Z,99782.38
2022-09-12T09:55:57.519Z,99779.34
2022-09-12T09:58:31.183Z,99788.09
2022-09-12T10:00:58.926Z,99785.69
2022-09-12T10:03:28.838Z,99790.59
2022-09-12T10:06:00.008Z,99776.44
2022-09-12T10:08:30.963Z,99761.88
2022-09-12T10:11:27.045Z,99765.91
2022-09-12T10:14:00.572Z,99760.03
2022-09-12T10:16:34.685Z,99756.00
2022-09-12T10:19:02.668Z,99758.66
2022-09-12T10:21:36.370Z,99773.13
2022-09-12T10:24:11.431Z,99766.78
2022-09-12T10:26:38.652Z,99768.97
2022-09-12T10:29:14.511Z,99770.34
2022-09-12T10:31:49.526Z,99760.53
2022-09-12T10:34:46.178Z,99762.53
2022-09-12T10:37:17.821Z,99759.47
2022-09-12T10:39:50.531Z,99765.66
2022-09-12T10:42:21.524Z,99770.34
2022-09-12T10:44:54.439Z,99764.03
2022-09-12T10:47:22.681Z,99770.81
2022-09-12T10:49:51.187Z,99765.47
2022-09-12T10:52:23.478Z,99773.78
2022-09-12T10:54:51.090Z,99766.84
2022-09-12T10:57:36.625Z,99768.94
2022-09-12T11:00:14.903Z,99764.75
2022-09-12T11:02:41.624Z,99762.69
2022-09-12T11:05:14.194Z,99748.09
2022-09-12T11:08:10.579Z,99762.94
2022-09-12T11:11:16.064Z,99769.66
2022-09-12T11:13:48.745Z,99769.59
2022-09-12T11:16:15.838Z,99758.19
2022-09-12T11:19:04.008Z,99758.22
2022-09-12T11:22:00.116Z,99759.94
2022-09-12T11:24:35.646Z,99765.50
2022-09-12T11:27:22.980Z,99774.53
2022-09-12T11:29:54.952Z,99766.09
2022-09-12T11:32:25.052Z,99767.75
2022-09-12T11:34:58.238Z,99764.09
2022-09-12T11:37:46.352Z,99767.03
2022-09-12T11:40:33.387Z,99762.25
2022-09-12T11:43:07.916Z,99761.84
2022-09-12T11:45:36.165Z,99761.78
2022-09-12T11:48:04.702Z,99760.91
2022-09-12T11:50:31.908Z,99757.16
2022-09-12T11:53:04.115Z,99758.72
2022-09-12T11:55:33.114Z,99752.59
2022-09-12T11:58:00.161Z,99760.84
2022-09-12T12:00:31.764Z,99760.97
2022-09-12T12:03:06.870Z,99761.66
2022-09-12T12:05:44.218Z,99755.13
2022-09-12T12:08:11.376Z,99758.34
2022-09-12T12:10:39.602Z,99750.75
2022-09-12T12:13:13.337Z,99740.41
2022-09-12T12:15:41.183Z,99739.81
2022-09-12T12:18:08.876Z,99751.72
2022-09-12T12:20:35.599Z,99738.31
2022-09-12T12:23:02.886Z,99731.22
2022-09-12T12:25:41.090Z,99731.69
2022-09-12T12:28:08.145Z,99739.53
2022-09-12T12:30:59.456Z,99730.72
2022-09-12T12:33:27.028Z,99727.53
2022-09-12T12:35:59.919Z,99729.84
2022-09-12T12:38:29.985Z,99735.59
2022-09-12T12:41:15.413Z,99730.69
2022-09-12T12:43:43.050Z,99735.00
2022-09-12T12:46:11.242Z,99741.91
2022-09-12T12:49:04.422Z,99732.97
2022-09-12T12:51:37.693Z,99734.37
2022-09-12T12:54:07.784Z,99729.22
2022-09-12T12:56:42.031Z,99731.09
2022-09-12T12:59:13.978Z,99720.00
2022-09-12T13:01:45.142Z,99720.25
2022-09-12T13:04:13.424Z,99717.47
2022-09-12T13:06:41.315Z,99718.06
2022-09-12T13:09:14.617Z,99709.34
2022-09-12T13:11:41.358Z,99717.91
2022-09-12T13:14:28.647Z,99712.75
2022-09-12T13:16:56.762Z,99711.63
2022-09-12T13:19:34.126Z,99714.13
2022-09-12T13:22:05.522Z,99709.41
2022-09-12T13:24:33.115Z,99699.28
2022-09-12T13:26:59.838Z,99701.25
2022-09-12T13:29:27.819Z,99696.03
2022-09-12T13:31:59.337Z,99694.41
2022-09-12T13:34:27.854Z,99680.19
2022-09-12T13:37:04.965Z,99681.75
2022-09-12T13:40:07.511Z,99684.72
2022-09-12T13:42:43.536Z,99683.41
2022-09-12T13:45:28.655Z,99686.13
2022-09-12T13:47:59.971Z,99671.63
2022-09-12T13:50:27.821Z,99688.00
2022-09-12T13:52:56.363Z,99685.81
2022-09-12T13:55:25.915Z,99678.06
2022-09-12T13:58:15.397Z,99683.09
2022-09-12T14:00:42.600Z,99681.53
2022-09-12T14:03:47.893Z,99675.97
2022-09-12T14:06:16.358Z,99678.50
2022-09-12T14:08:43.505Z,99689.84
2022-09-12T14:11:11.039Z,99673.13
2022-09-12T14:13:38.997Z,99687.66
2022-09-12T14:16:09.901Z,99679.69
2022-09-12T14:18:39.991Z,99675.56
2022-09-12T14:21:11.279Z,99680.91
2022-09-12T14:23:41.739Z,99683.81
2022-09-12T14:26:11.489Z,99686.97
2022-09-12T14:28:42.345Z,99680.47
2022-09-12T14:31:12.403Z,99684.84
2022-09-12T14:33:48.636Z,99679.69
2022-09-12T14:36:24.703Z,99690.13
2022-09-12T14:38:56.131Z,99691.06
2022-09-12T14:41:27.712Z,99686.59
2022-09-12T14:43:55.430Z,99690.28
2022-09-12T14:46:23.398Z,99683.88
2022-09-12T14:48:54.300Z,99683.69
2022-09-12T14:51:22.335Z,99691.19
2022-09-12T14:53:49.908Z,99692.44
2022-09-12T14:56:17.042Z,99689.97
2022-09-12T14:58:43.698Z,99686.03
2022-09-12T15:01:10.422Z,99684.44
2022-09-12T15:03:49.351Z,99682.94
2022-09-12T15:06:33.026Z,99673.50
2022-09-12T15:09:00.869Z,99665.47
2022-09-12T15:11:27.912Z,99678.97
2022-09-12T15:13:54.768Z,99671.50
2022-09-12T15:16:22.730Z,99665.97
2022-09-12T15:18:49.453Z,99674.81
2022-09-12T15:21:17.265Z,99667.94
2022-09-12T15:23:46.376Z,99672.31
2022-09-12T15:26:14.209Z,99662.62
2022-09-12T15:28:40.990Z,99659.72
2022-09-12T15:31:21.209Z,99665.59
2022-09-12T15:33:48.074Z,99664.63
2022-09-12T15:36:16.666Z,99666.59
2022-09-12T15:38:43.696Z,99660.66
2022-09-12T15:41:11.354Z,99675.59
2022-09-12T15:43:38.406Z,99667.25
2022-09-12T15:46:06.837Z,99669.56
2022-09-12T15:48:35.891Z,99675.69
2022-09-12T15:51:04.829Z,99670.12
2022-09-12T15:53:31.769Z,99672.91
2022-09-12T15:55:58.487Z,99670.38
2022-09-12T15:58:25.450Z,99668.53
2022-09-12T16:00:52.125Z,99670.50
2022-09-12T16:03:23.345Z,99668.13
2022-09-12T16:05:50.563Z,99662.19
2022-09-12T16:08:17.288Z,99663.63
2022-09-12T16:10:44.361Z,99669.31
2022-09-12T16:13:11.088Z,99670.09
2022-09-12T16:15:37.969Z,99675.00
2022-09-12T16:18:04.960Z,99666.16
2022-09-12T16:20:31.644Z,99673.09
2022-09-12T16:22:58.358Z,99669.75
2022-09-12T16:25:25.657Z,99671.50
2022-09-12T16:27:52.540Z,99662.88
2022-09-12T16:30:19.292Z,99675.38
2022-09-12T16:32:46.661Z,99675.88
2022-09-12T16:35:13.376Z,99668.81
2022-09-12T16:37:40.342Z,99663.06
2022-09-12T16:40:07.711Z,99670.47
2022-09-12T16:42:35.204Z,99663.06
2022-09-12T16:45:02.594Z,99670.38
2022-09-12T16:47:32.241Z,99662.22
2022-09-12T16:49:59.631Z,99659.13
2022-09-12T16:52:26.360Z,99666.00
2022-09-12T16:54:53.529Z,99670.44
2022-09-12T16:57:20.454Z,99665.09
2022-09-12T16:59:47.187Z,99661.41
2022-09-12T17:02:14.338Z,99658.09
2022-09-12T17:04:41.243Z,99660.88
2022-09-12T17:07:08.147Z,99657.94
2022-09-12T17:09:35.166Z,99666.00
2022-09-12T17:12:02.066Z,99668.88
2022-09-12T17:14:28.758Z,99672.22
2022-09-12T17:16:55.774Z,99666.41
2022-09-12T17:19:26.369Z,99668.41
2022-09-12T17:21:53.172Z,99667.19
2022-09-12T17:24:20.247Z,99669.19
2022-09-12T17:26:47.113Z,99662.84
2022-09-12T17:29:13.993Z,99673.25
2022-09-12T17:31:41.480Z,99676.38
2022-09-12T17:34:08.539Z,99670.97
2022-09-12T17:36:35.512Z,99682.38
2022-09-12T17:39:03.807Z,99684.41
2022-09-12T17:41:33.742Z,99691.84
2022-09-12T17:44:01.377Z,99687.63
2022-09-12T17:46:33.524Z,99697.22
2022-09-12T17:49:01.197Z,99697.53
2022-09-12T17:51:30.783Z,99700.53
2022-09-12T17:54:01.765Z,99710.31
2022-09-12T17:56:31.019Z,99710.91
2022-09-12T17:58:58.546Z,99715.97
2022-09-12T18:01:44.166Z,99711.19
2022-09-12T18:04:11.582Z,99703.94
2022-09-12T18:06:38.445Z,99709.16
2022-09-12T18:09:06.295Z,99713.66
2022-09-12T18:11:33.854Z,99715.78
2022-09-12T18:14:01.023Z,99723.72
2022-09-12T18:16:33.076Z,99726.41
2022-09-12T18:19:01.754Z,99731.50
2022-09-12T18:21:29.999Z,99730.66
2022-09-12T18:23:59.293Z,99730.88
2022-09-12T18:26:27.168Z,99733.78
2022-09-12T18:28:55.405Z,99741.09
2022-09-12T18:31:24.224Z,99737.44
2022-09-12T18:33:51.894Z,99738.69
2022-09-12T18:36:19.909Z,99751.47
2022-09-12T18:38:48.233Z,99738.56
2022-09-12T18:41:16.889Z,99740.13
2022-09-12T18:43:44.650Z,99738.47
2022-09-12T18:46:15.659Z,99742.28
2022-09-12T18:48:43.331Z,99745.94
2022-09-12T18:51:12.515Z,99749.91
2022-09-12T18:53:39.579Z,99749.41
2022-09-12T18:56:10.988Z,99746.69
2022-09-12T18:58:38.941Z,99745.00
2022-09-12T19:01:16.858Z,99744.28
2022-09-12T19:03:44.558Z,99745.28
2022-09-12T19:06:17.816Z,99740.81
2022-09-12T19:08:46.088Z,99746.22
2022-09-12T19:11:13.582Z,99740.88
2022-09-12T19:13:41.206Z,99739.00
2022-09-12T19:16:13.755Z,99741.44
2022-09-12T19:18:44.089Z,99734.44
2022-09-12T19:21:15.731Z,99733.66
2022-09-12T19:23:43.211Z,99740.19
2022-09-12T19:26:11.300Z,99744.47
2022-09-12T19:28:38.370Z,99738.38
2022-09-12T19:31:06.665Z,99749.94
2022-09-12T19:33:34.099Z,99749.09
2022-09-12T19:36:03.046Z,99750.69
2022-09-12T19:38:30.401Z,99754.97
2022-09-12T19:40:58.184Z,99753.22
2022-09-12T19:43:25.610Z,99744.53
2022-09-12T19:45:53.125Z,99744.75
2022-09-12T19:48:20.387Z,99753.44
2022-09-12T19:50:49.663Z,99750.28
2022-09-12T19:53:18.723Z,99740.94
2022-09-12T19:55:46.944Z,99743.31
2022-09-12T19:58:14.188Z,99752.59
2022-09-12T20:00:48.574Z,99753.03
2022-09-12T20:03:15.902Z,99756.09
2022-09-12T20:05:46.705Z,99750.97
2022-09-12T20:08:13.537Z,99752.34
2022-09-12T20:10:41.981Z,99747.84
2022-09-12T20:13:08.921Z,99746.88
2022-09-12T20:15:35.916Z,99744.38
2022-09-12T20:18:03.272Z,99739.38
2022-09-12T20:20:30.961Z,99744.16
2022-09-12T20:22:57.847Z,99737.88
2022-09-12T20:25:25.200Z,99743.78
2022-09-12T20:27:54.937Z,99743.63
2022-09-12T20:30:24.147Z,99750.91
2022-09-12T20:32:50.920Z,99748.00
2022-09-12T20:35:18.673Z,99751.38
2022-09-12T20:37:45.884Z,99745.16
2022-09-12T20:40:12.738Z,99749.75
2022-09-12T20:42:39.479Z,99756.09
2022-09-12T20:45:07.916Z,99760.16
2022-09-12T20:47:34.663Z,99761.88
2022-09-12T20:50:01.397Z,99758.56
2022-09-12T20:52:28.326Z,99761.12
2022-09-12T20:54:55.019Z,99761.19
2022-09-12T20:57:21.842Z,99762.38
2022-09-12T20:59:48.868Z,99764.87
2022-09-12T21:02:15.987Z,99763.84
2022-09-12T21:04:42.790Z,99772.56
2022-09-12T21:07:09.852Z,99769.06
2022-09-12T21:09:36.516Z,99760.72
2022-09-12T21:12:03.305Z,99768.31
2022-09-12T21:14:30.254Z,99767.31
2022-09-12T21:16:57.026Z,99772.72
2022-09-12T21:19:23.753Z,99774.72
2022-09-12T21:21:50.791Z,99776.28
2022-09-12T21:24:17.581Z,99767.72
2022-09-12T21:26:44.224Z,99774.63
2022-09-12T21:29:11.740Z,99773.63
2022-09-12T21:31:38.488Z,99781.41
2022-09-12T21:34:05.183Z,99783.25
2022-09-12T21:36:32.182Z,99780.81
2022-09-12T21:38:59.296Z,99788.78
2022-09-12T21:41:26.039Z,99788.63
2022-09-12T21:43:53.219Z,99789.44
2022-09-12T21:46:20.063Z,99789.59
2022-09-12T21:48:46.893Z,99790.22
2022-09-12T21:51:13.831Z,99792.00
2022-09-12T21:53:40.512Z,99790.38
2022-09-12T21:56:07.925Z,99790.53
2022-09-12T21:58:35.425Z,99795.56
2022-09-12T22:01:02.647Z,99781.53
2022-09-12T22:03:29.828Z,99773.81
2022-09-12T22:05:57.363Z,99792.12
2022-09-12T22:08:24.097Z,99799.03
2022-09-12T22:10:51.102Z,99788.53
2022-09-12T22:13:17.825Z,99788.19
2022-09-12T22:15:44.754Z,99796.75
2022-09-12T22:18:11.761Z,99792.34
2022-09-12T22:20:38.433Z,99793.28
2022-09-12T22:23:24.992Z,99790.69
2022-09-12T22:25:55.074Z,99788.72
2022-09-12T22:28:22.207Z,99789.97
2022-09-12T22:30:48.903Z,99790.97
2022-09-12T22:33:15.890Z,99799.44
2022-09-12T22:35:42.549Z,99801.38
2022-09-12T22:38:09.285Z,99804.78
2022-09-12T22:40:36.351Z,99808.28
2022-09-12T22:43:03.006Z,99808.31
2022-09-12T22:45:29.672Z,99806.69
2022-09-12T22:48:00.535Z,99800.53
2022-09-12T22:50:27.914Z,99803.06
2022-09-12T22:52:54.732Z,99799.06
2022-09-12T22:55:21.729Z,99805.75
2022-09-12T22:57:48.417Z,99801.59
2022-09-12T23:00:15.184Z,99800.63
2022-09-12T23:02:42.756Z,99801.59
2022-09-12T23:05:09.516Z,99794.72
2022-09-12T23:07:36.232Z,99802.91
2022-09-12T23:10:03.597Z,99807.22
2022-09-12T23:12:31.871Z,99800.22
2022-09-12T23:14:58.577Z,99802.00
2022-09-12T23:17:25.587Z,99805.34
2022-09-12T23:19:52.612Z,99816.66
2022-09-12T23:22:19.287Z,99812.66
2022-09-12T23:24:46.314Z,99805.78
2022-09-12T23:27:12.961Z,99806.38
2022-09-12T23:29:39.790Z,99802.91
2022-09-12T23:32:06.862Z,99800.34
2022-09-12T23:34:33.617Z,99805.53
2022-09-12T23:37:00.283Z,99802.09
2022-09-12T23:39:27.244Z,99802.03
2022-09-12T23:41:53.958Z,99798.50
2022-09-12T23:44:20.623Z,99802.28
2022-09-12T23:46:47.687Z,99801.16
2022-09-12T23:49:15.333Z,99801.16
2022-09-12T23:51:42.017Z,99801.53
2022-09-12T23:54:09.004Z,99803.97
2022-09-12T23:56:35.714Z,99800.75
2022-09-12T23:59:02.718Z,99802.63
